• Join FlightAware (Why Join?)
  • Login
  • US Flag 
Gobble Gobble! 
05:00PM EST


 

Airport Tracker/Info


-or-


 

Live Flight TrackerFlight Track Log ✈ RPA3228 ✈ 09-Jul-2013 ✈ KBNA - KDCA

Flight Track Log - Related Links

Times and Time Zones

All times are in EDT time to prevent confusion due to time zone crossing. See the RPA3228 flight status page for this flight to view local times or setup timezone preferences in your user account.

Time Position Orientation Groundspeed Altitude Reporting Facility
EDT Latitude Longitude Course Direction KTS MPH feet Rate Location/Type
07:41AM 36.1333 -86.6833 64° Northeast 155 178 1,500  Level Nashville TRACON
07:42AM 36.1583 -86.7528 294° West 163 188 3,800 2,460 Climbing Memphis Center
07:43AM 36.2136 -86.7197 26° Northeast 154 177 7,000 3,540 Climbing Memphis Center
07:44AM 36.1871 -86.1572 80° East  Level FlightAware Approximate
07:44AM 36.2253 -86.6239 81° East 226 260 10,900  Level Memphis Center
07:45AM 36.2136 -86.0328 64° Northeast  Level FlightAware Approximate
07:45AM 36.2389 -86.5178 81° East 275 316 13,700  Level Memphis Center
07:46AM 36.2601 -85.9165 64° Northeast  Level FlightAware Approximate
07:46AM 36.2517 -86.3961 83° East 312 359 16,600  Level Memphis Center
07:47AM 36.2644 -86.2747 83° East 340 391 19,300 2,640 Climbing Memphis Center
07:48AM 36.2772 -86.1556 82° East 351 404 21,900 2,340 Climbing Memphis Center
07:50AM 36.2989 -85.9686 82° East 373 429 25,400 1,920 Climbing Indianapolis Center
07:51AM 36.3136 -85.8353 82° East 383 441 27,000 780 Climbing Indianapolis Center
07:52AM 36.3686 -85.7022 63° Northeast 398 458 27,000  Level Indianapolis Center
07:53AM 36.4256 -85.5794 60° Northeast 404 465 27,000  Level Indianapolis Center
07:54AM 36.4825 -85.4594 59° Northeast 402 463 27,000 240 Level Indianapolis Center
07:55AM 36.5228 -85.3267 69° East 415 478 27,600 1,140 Climbing Indianapolis Center
07:56AM 36.5392 -85.1822 82° East 421 484 29,400 1,740 Climbing Indianapolis Center
07:57AM 36.5653 -85.0414 77° East 418 481 31,200 1,740 Climbing Indianapolis Center
07:58AM 36.6178 -84.8825 68° East 411 473 33,000 840 Climbing Indianapolis Center
07:59AM 36.6600 -84.7539 68° East 402 463 33,000  Level Indianapolis Center
08:00AM 36.7011 -84.6261 68° East 398 458 33,000  Level Indianapolis Center
08:01AM 36.7433 -84.4967 68° East 400 460 33,000  Level Indianapolis Center
08:02AM 36.7842 -84.3689 68° East 398 458 33,000  Level Indianapolis Center
08:03AM 36.8264 -84.2411 68° East 399 459 33,000  Level Indianapolis Center
08:04AM 36.8672 -84.1119 68° East 401 461 33,000  Level Indianapolis Center
08:05AM 36.9092 -83.9831 68° East 401 461 33,000  Level Indianapolis Center
08:06AM 36.9581 -83.8333 68° East 398 458 33,000  Level Indianapolis Center
08:07AM 37.0006 -83.7047 67° East 401 461 33,000  Level Indianapolis Center
08:08AM 37.0411 -83.5756 68° East 400 460 33,000  Level Indianapolis Center
08:09AM 37.0808 -83.4461 69° East 399 459 33,000  Level Indianapolis Center
08:10AM 37.1219 -83.3164 68° East 401 461 33,000  Level Indianapolis Center
08:11AM 37.1639 -83.1856 68° East 403 464 33,000  Level Indianapolis Center
08:12AM 37.2044 -83.0539 69° East 403 464 33,000  Level Indianapolis Center
08:13AM 37.2450 -82.9228 69° East 399 459 33,000  Level Indianapolis Center
08:14AM 37.2914 -82.7700 69° East 400 460 33,000  Level Indianapolis Center
08:15AM 37.3314 -82.6392 69° East 400 460 33,000  Level Indianapolis Center
08:16AM 37.3700 -82.5106 69° East 394 453 33,000  Level Indianapolis Center
08:17AM 37.4094 -82.3808 69° East 395 455 33,000  Level Indianapolis Center
08:18AM 37.4489 -82.2500 69° East 399 459 33,000  Level Indianapolis Center
08:19AM 37.4886 -82.1197 69° East 399 459 33,000  Level Indianapolis Center
08:20AM 37.5272 -81.9883 70° East 400 460 33,000  Level Indianapolis Center
08:21AM 37.5731 -81.8350 69° East 400 460 33,000  Level Indianapolis Center
08:22AM 37.6119 -81.7044 69° East 398 458 33,000  Level Indianapolis Center
08:23AM 37.6517 -81.5722 69° East 402 463 33,000  Level Indianapolis Center
08:24AM 37.6908 -81.4372 70° East 403 464 33,000  Level Indianapolis Center
08:25AM 37.7292 -81.3061 70° East 409 471 33,000  Level Indianapolis Center
08:27AM 37.7653 -81.1769 70° East 404 465 33,000  Level Indianapolis Center
08:28AM 37.8167 -81.0219 67° East 408 470 33,000  Level Indianapolis Center
08:29AM 37.8614 -80.8928 66° East 408 470 33,000  Level Indianapolis Center
08:30AM 37.9081 -80.7633 65° Northeast 405 466 33,000  Level Indianapolis Center
08:31AM 37.9550 -80.6322 66° East 408 470 33,000 -660 Level Indianapolis Center
08:32AM 38.0014 -80.5000 66° East 410 472 31,700 -1,440 Descending Indianapolis Center
08:33AM 38.0508 -80.3581 66° East 407 468 30,100 -1,620 Descending Indianapolis Center
08:34AM 38.1008 -80.2128 66° East 406 467 28,400 -1,500 Descending Indianapolis Center
08:35AM 38.1472 -80.0853 65° Northeast 389 448 27,000 -720 Descending Indianapolis Center
08:36AM 38.1906 -79.9608 66° East 394 453 27,000  Level Indianapolis Center
08:37AM 38.2356 -79.8347 66° East 401 461 27,000  Level Indianapolis Center
08:38AM 38.2883 -79.6839 66° East 399 459 27,000  Level Indianapolis Center
08:39AM 38.3311 -79.5589 66° East 396 456 27,000  Level Indianapolis Center
08:40AM 38.3856 -79.4139 64° Northeast 394 453 27,000  Level Washington Center
08:41AM 38.4272 -79.2811 68° East 394 453 27,000 -360 Level Washington Center
08:42AM 38.4544 -79.1417 76° East 394 453 26,400 2,940 Descending Washington Center
08:43AM 38.4772 -79.0050 78° East 394 453 33,000 -840 Climbing Washington Center
08:44AM 38.4969 -78.8972 77° East 394 453 24,700 -4,920 Descending Washington Center
08:45AM 38.5200 -78.7361 80° East 399 459 23,100 -900 Descending Washington Center
08:46AM 38.5422 -78.5939 79° East 405 466 23,000 -660 Descending Washington Center
08:47AM 38.5647 -78.4486 79° East 412 474 21,900 -1,620 Descending Washington Center
08:48AM 38.5867 -78.3142 78° East 407 468 19,800 -1,860 Descending Washington Center
08:49AM 38.6164 -78.1875 73° East 385 443 18,200 -1,440 Descending Washington Center
08:50AM 38.6522 -78.0800 67° East 347 399 16,900 -1,440 Descending Washington Center
08:51AM 38.6833 -77.9800 68° East 322 371 15,400 -1,560 Descending Washington Center
08:52AM 38.7144 -77.8825 68° East 302 348 13,900 -1,440 Descending Washington Center
08:53AM 38.7556 -77.7933 59° Northeast 286 329 12,600 -1,440 Descending Washington Center
08:54AM 38.8136 -77.7069 49° Northeast 281 323 11,100 -1,320 Descending Washington Center
08:55AM 38.8547 -77.6175 59° Northeast 287 330 10,000 -1,140 Descending Washington Center
08:56AM 38.9000 -77.4833 67° East 282 325 8,500 -1,260 Descending Potomac TRACON
08:57AM 38.8833 -77.4000 104° East 281 323 7,200 -840 Descending Potomac TRACON
08:58AM 38.8667 -77.3333 108° East 252 290 7,000 -120 Descending Potomac TRACON
08:59AM 38.8167 -77.2500 128° Southeast 251 289 7,000  Level Potomac TRACON
09:00AM 38.7833 -77.1667 117° Southeast 251 289 7,000 -420 Level Potomac TRACON
09:01AM 38.7500 -77.1167 131° Southeast 250 288 6,300 -600 Descending Potomac TRACON
09:02AM 38.6833 -77.1167 180° South 209 241 5,900 -960 Descending Potomac TRACON
09:03AM 38.6333 -77.1000 165° South 203 234 4,400 -900 Descending Potomac TRACON
09:04AM 38.5667 -77.1000 180° South 184 212 4,000 -240 Descending Potomac TRACON
09:05AM 38.5333 -77.0667 142° Southeast 199 229 4,000 -480 Level Potomac TRACON
09:06AM 38.5500 -77.0000 72° East 195 224 3,100 -660 Descending Potomac TRACON
09:07AM 38.6000 -77.0167 345° North 176 203 2,700 -300 Descending Potomac TRACON
09:08AM 38.6500 -77.0167 360° North 177 204 2,500 -240 Descending Potomac TRACON